sensor_id;sensor_type;location;lat;lon;timestamp;P1;durP1;ratioP1;P2;durP2;ratioP2
78131;SDS011;67381;47.672;9.380;2023-07-13T00:01:07;8.95;;;3.03;;
78131;SDS011;67381;47.672;9.380;2023-07-13T00:03:34;7.15;;;2.33;;
78131;SDS011;67381;47.672;9.380;2023-07-13T00:06:02;9.60;;;2.67;;
78131;SDS011;67381;47.672;9.380;2023-07-13T00:08:30;6.45;;;2.47;;
78131;SDS011;67381;47.672;9.380;2023-07-13T00:11:00;5.50;;;2.53;;
78131;SDS011;67381;47.672;9.380;2023-07-13T00:13:28;8.95;;;3.08;;
78131;SDS011;67381;47.672;9.380;2023-07-13T00:15:57;6.53;;;2.38;;
78131;SDS011;67381;47.672;9.380;2023-07-13T00:18:25;8.02;;;2.80;;
78131;SDS011;67381;47.672;9.380;2023-07-13T00:20:52;7.07;;;3.30;;
78131;SDS011;67381;47.672;9.380;2023-07-13T00:23:20;4.95;;;2.42;;
78131;SDS011;67381;47.672;9.380;2023-07-13T00:25:47;4.90;;;2.78;;
78131;SDS011;67381;47.672;9.380;2023-07-13T00:28:14;6.13;;;2.50;;
78131;SDS011;67381;47.672;9.380;2023-07-13T00:30:42;6.10;;;2.60;;
78131;SDS011;67381;47.672;9.380;2023-07-13T00:33:09;6.05;;;3.00;;
78131;SDS011;67381;47.672;9.380;2023-07-13T00:35:42;7.85;;;2.63;;
78131;SDS011;67381;47.672;9.380;2023-07-13T00:38:11;8.60;;;2.90;;
78131;SDS011;67381;47.672;9.380;2023-07-13T00:40:39;6.53;;;2.60;;
78131;SDS011;67381;47.672;9.380;2023-07-13T00:43:19;5.82;;;2.60;;
78131;SDS011;67381;47.672;9.380;2023-07-13T00:48:17;9.73;;;3.10;;
78131;SDS011;67381;47.672;9.380;2023-07-13T00:50:51;4.88;;;2.53;;
78131;SDS011;67381;47.672;9.380;2023-07-13T00:53:21;5.32;;;2.60;;
78131;SDS011;67381;47.672;9.380;2023-07-13T00:55:49;8.75;;;2.58;;
78131;SDS011;67381;47.672;9.380;2023-07-13T00:58:17;8.63;;;2.75;;
78131;SDS011;67381;47.672;9.380;2023-07-13T01:00:44;4.03;;;2.10;;
78131;SDS011;67381;47.672;9.380;2023-07-13T01:03:14;6.60;;;2.50;;
78131;SDS011;67381;47.672;9.380;2023-07-13T01:05:42;5.55;;;2.97;;
78131;SDS011;67381;47.672;9.380;2023-07-13T01:08:10;4.40;;;2.58;;
78131;SDS011;67381;47.672;9.380;2023-07-13T01:10:37;9.18;;;2.88;;
78131;SDS011;67381;47.672;9.380;2023-07-13T01:13:06;8.68;;;3.08;;
78131;SDS011;67381;47.672;9.380;2023-07-13T01:18:14;9.18;;;2.88;;
78131;SDS011;67381;47.672;9.380;2023-07-13T01:20:57;6.88;;;2.58;;
78131;SDS011;67381;47.672;9.380;2023-07-13T01:23:29;6.45;;;3.15;;
78131;SDS011;67381;47.672;9.380;2023-07-13T01:25:57;10.88;;;3.20;;
78131;SDS011;67381;47.672;9.380;2023-07-13T01:28:25;8.00;;;2.83;;
78131;SDS011;67381;47.672;9.380;2023-07-13T01:30:54;5.63;;;2.97;;
78131;SDS011;67381;47.672;9.380;2023-07-13T01:33:23;6.90;;;3.22;;
78131;SDS011;67381;47.672;9.380;2023-07-13T01:35:50;9.93;;;3.20;;
78131;SDS011;67381;47.672;9.380;2023-07-13T01:38:19;9.50;;;3.20;;
78131;SDS011;67381;47.672;9.380;2023-07-13T01:40:48;6.90;;;3.10;;
78131;SDS011;67381;47.672;9.380;2023-07-13T01:43:16;6.65;;;3.40;;
78131;SDS011;67381;47.672;9.380;2023-07-13T01:45:44;8.27;;;3.00;;
78131;SDS011;67381;47.672;9.380;2023-07-13T01:48:13;8.85;;;2.92;;
78131;SDS011;67381;47.672;9.380;2023-07-13T01:50:41;8.48;;;2.97;;
78131;SDS011;67381;47.672;9.380;2023-07-13T01:53:09;7.35;;;2.80;;
78131;SDS011;67381;47.672;9.380;2023-07-13T01:55:36;6.32;;;2.63;;
78131;SDS011;67381;47.672;9.380;2023-07-13T01:58:04;8.10;;;3.38;;
78131;SDS011;67381;47.672;9.380;2023-07-13T02:00:32;8.25;;;3.22;;
78131;SDS011;67381;47.672;9.380;2023-07-13T02:03:02;9.10;;;3.00;;
78131;SDS011;67381;47.672;9.380;2023-07-13T02:05:30;5.47;;;3.25;;
78131;SDS011;67381;47.672;9.380;2023-07-13T02:07:58;7.35;;;3.22;;
78131;SDS011;67381;47.672;9.380;2023-07-13T02:10:26;8.27;;;3.13;;
78131;SDS011;67381;47.672;9.380;2023-07-13T02:12:53;6.25;;;3.10;;
78131;SDS011;67381;47.672;9.380;2023-07-13T02:15:20;5.75;;;2.80;;
78131;SDS011;67381;47.672;9.380;2023-07-13T02:17:48;6.40;;;3.13;;
78131;SDS011;67381;47.672;9.380;2023-07-13T02:20:15;7.28;;;3.03;;
78131;SDS011;67381;47.672;9.380;2023-07-13T02:22:43;5.88;;;2.83;;
78131;SDS011;67381;47.672;9.380;2023-07-13T02:25:10;10.88;;;4.00;;
78131;SDS011;67381;47.672;9.380;2023-07-13T02:27:38;6.00;;;3.13;;
78131;SDS011;67381;47.672;9.380;2023-07-13T02:30:05;5.25;;;3.53;;
78131;SDS011;67381;47.672;9.380;2023-07-13T02:32:33;10.05;;;3.45;;
78131;SDS011;67381;47.672;9.380;2023-07-13T02:35:01;6.70;;;3.70;;
78131;SDS011;67381;47.672;9.380;2023-07-13T02:37:28;6.75;;;3.25;;
78131;SDS011;67381;47.672;9.380;2023-07-13T02:39:57;13.23;;;4.00;;
78131;SDS011;67381;47.672;9.380;2023-07-13T02:42:24;6.85;;;3.30;;
78131;SDS011;67381;47.672;9.380;2023-07-13T02:44:51;6.80;;;3.58;;
78131;SDS011;67381;47.672;9.380;2023-07-13T02:47:19;10.77;;;3.40;;
78131;SDS011;67381;47.672;9.380;2023-07-13T02:49:46;6.57;;;3.50;;
78131;SDS011;67381;47.672;9.380;2023-07-13T02:52:14;10.15;;;3.80;;
78131;SDS011;67381;47.672;9.380;2023-07-13T02:54:41;7.05;;;3.58;;
78131;SDS011;67381;47.672;9.380;2023-07-13T02:57:10;8.55;;;3.83;;
78131;SDS011;67381;47.672;9.380;2023-07-13T02:59:37;9.85;;;3.58;;
78131;SDS011;67381;47.672;9.380;2023-07-13T03:02:04;7.35;;;3.53;;
78131;SDS011;67381;47.672;9.380;2023-07-13T03:04:32;6.88;;;3.20;;
78131;SDS011;67381;47.672;9.380;2023-07-13T03:07:00;7.25;;;3.22;;
78131;SDS011;67381;47.672;9.380;2023-07-13T03:09:34;5.97;;;3.47;;
78131;SDS011;67381;47.672;9.380;2023-07-13T03:12:03;7.80;;;3.78;;
78131;SDS011;67381;47.672;9.380;2023-07-13T03:14:32;8.13;;;3.22;;
78131;SDS011;67381;47.672;9.380;2023-07-13T03:17:01;8.07;;;3.67;;
78131;SDS011;67381;47.672;9.380;2023-07-13T03:19:31;6.03;;;3.30;;
78131;SDS011;67381;47.672;9.380;2023-07-13T03:21:58;8.18;;;3.22;;
78131;SDS011;67381;47.672;9.380;2023-07-13T03:24:26;5.78;;;3.40;;
78131;SDS011;67381;47.672;9.380;2023-07-13T03:26:55;6.90;;;3.45;;
78131;SDS011;67381;47.672;9.380;2023-07-13T03:29:23;8.45;;;3.42;;
78131;SDS011;67381;47.672;9.380;2023-07-13T03:31:51;11.88;;;3.67;;
78131;SDS011;67381;47.672;9.380;2023-07-13T03:34:19;7.75;;;3.13;;
78131;SDS011;67381;47.672;9.380;2023-07-13T03:36:46;7.07;;;3.10;;
78131;SDS011;67381;47.672;9.380;2023-07-13T03:39:13;6.13;;;3.45;;
78131;SDS011;67381;47.672;9.380;2023-07-13T03:41:47;7.38;;;2.95;;
78131;SDS011;67381;47.672;9.380;2023-07-13T03:44:16;5.38;;;3.22;;
78131;SDS011;67381;47.672;9.380;2023-07-13T03:46:47;7.43;;;3.33;;
78131;SDS011;67381;47.672;9.380;2023-07-13T03:49:14;6.22;;;2.95;;
78131;SDS011;67381;47.672;9.380;2023-07-13T03:51:42;9.25;;;3.33;;
78131;SDS011;67381;47.672;9.380;2023-07-13T03:54:09;8.02;;;3.13;;
78131;SDS011;67381;47.672;9.380;2023-07-13T03:56:37;7.97;;;3.15;;
78131;SDS011;67381;47.672;9.380;2023-07-13T03:59:06;8.55;;;3.00;;
78131;SDS011;67381;47.672;9.380;2023-07-13T04:01:34;4.35;;;2.72;;
78131;SDS011;67381;47.672;9.380;2023-07-13T04:04:01;6.10;;;3.38;;
78131;SDS011;67381;47.672;9.380;2023-07-13T04:06:30;10.90;;;3.75;;
78131;SDS011;67381;47.672;9.380;2023-07-13T04:08:59;7.65;;;3.22;;
78131;SDS011;67381;47.672;9.380;2023-07-13T04:11:28;7.60;;;4.35;;
78131;SDS011;67381;47.672;9.380;2023-07-13T04:13:59;7.25;;;3.13;;
78131;SDS011;67381;47.672;9.380;2023-07-13T04:16:27;5.80;;;3.10;;
78131;SDS011;67381;47.672;9.380;2023-07-13T04:18:55;5.30;;;2.85;;
78131;SDS011;67381;47.672;9.380;2023-07-13T04:21:27;10.55;;;2.97;;
78131;SDS011;67381;47.672;9.380;2023-07-13T04:23:55;7.55;;;3.40;;
78131;SDS011;67381;47.672;9.380;2023-07-13T04:26:23;6.47;;;3.63;;
78131;SDS011;67381;47.672;9.380;2023-07-13T04:28:50;8.15;;;3.42;;
78131;SDS011;67381;47.672;9.380;2023-07-13T04:31:19;15.32;;;3.55;;
78131;SDS011;67381;47.672;9.380;2023-07-13T04:33:46;9.95;;;3.42;;
78131;SDS011;67381;47.672;9.380;2023-07-13T04:36:15;5.13;;;3.05;;
78131;SDS011;67381;47.672;9.380;2023-07-13T04:38:42;6.68;;;3.15;;
78131;SDS011;67381;47.672;9.380;2023-07-13T04:41:10;10.15;;;4.18;;
78131;SDS011;67381;47.672;9.380;2023-07-13T04:43:38;8.32;;;3.72;;
78131;SDS011;67381;47.672;9.380;2023-07-13T04:46:06;7.72;;;3.30;;
78131;SDS011;67381;47.672;9.380;2023-07-13T04:48:34;10.15;;;3.38;;
78131;SDS011;67381;47.672;9.380;2023-07-13T04:51:02;6.80;;;3.40;;
78131;SDS011;67381;47.672;9.380;2023-07-13T04:53:30;7.80;;;3.15;;
78131;SDS011;67381;47.672;9.380;2023-07-13T04:55:59;5.57;;;3.20;;
78131;SDS011;67381;47.672;9.380;2023-07-13T04:58:27;6.20;;;3.30;;
78131;SDS011;67381;47.672;9.380;2023-07-13T05:00:59;8.85;;;2.97;;
78131;SDS011;67381;47.672;9.380;2023-07-13T05:03:28;6.40;;;3.47;;
78131;SDS011;67381;47.672;9.380;2023-07-13T05:05:56;4.85;;;3.20;;
78131;SDS011;67381;47.672;9.380;2023-07-13T05:08:24;6.25;;;3.10;;
78131;SDS011;67381;47.672;9.380;2023-07-13T05:10:52;6.70;;;3.22;;
78131;SDS011;67381;47.672;9.380;2023-07-13T05:13:20;5.82;;;3.25;;
78131;SDS011;67381;47.672;9.380;2023-07-13T05:15:55;6.75;;;3.05;;
78131;SDS011;67381;47.672;9.380;2023-07-13T05:18:23;5.57;;;3.50;;
78131;SDS011;67381;47.672;9.380;2023-07-13T05:20:58;6.85;;;3.33;;
78131;SDS011;67381;47.672;9.380;2023-07-13T05:23:27;5.90;;;3.40;;
78131;SDS011;67381;47.672;9.380;2023-07-13T05:25:54;10.20;;;3.40;;
78131;SDS011;67381;47.672;9.380;2023-07-13T05:28:22;5.40;;;3.00;;
78131;SDS011;67381;47.672;9.380;2023-07-13T05:30:50;7.82;;;3.63;;
78131;SDS011;67381;47.672;9.380;2023-07-13T05:33:17;8.65;;;3.47;;
78131;SDS011;67381;47.672;9.380;2023-07-13T05:35:45;7.32;;;3.30;;
78131;SDS011;67381;47.672;9.380;2023-07-13T05:38:12;7.25;;;3.47;;
78131;SDS011;67381;47.672;9.380;2023-07-13T05:40:42;5.43;;;3.30;;
78131;SDS011;67381;47.672;9.380;2023-07-13T05:43:10;6.03;;;3.13;;
78131;SDS011;67381;47.672;9.380;2023-07-13T05:45:38;5.82;;;2.65;;
78131;SDS011;67381;47.672;9.380;2023-07-13T05:48:05;10.75;;;3.40;;
78131;SDS011;67381;47.672;9.380;2023-07-13T05:50:33;5.75;;;2.53;;
78131;SDS011;67381;47.672;9.380;2023-07-13T05:53:00;8.02;;;2.90;;
78131;SDS011;67381;47.672;9.380;2023-07-13T05:55:27;5.25;;;2.92;;
78131;SDS011;67381;47.672;9.380;2023-07-13T05:57:55;10.10;;;2.90;;
78131;SDS011;67381;47.672;9.380;2023-07-13T06:00:22;7.32;;;2.88;;
78131;SDS011;67381;47.672;9.380;2023-07-13T06:02:50;5.55;;;3.15;;
78131;SDS011;67381;47.672;9.380;2023-07-13T06:05:17;6.57;;;2.90;;
78131;SDS011;67381;47.672;9.380;2023-07-13T06:07:44;10.48;;;3.83;;
78131;SDS011;67381;47.672;9.380;2023-07-13T06:10:12;6.00;;;3.65;;
78131;SDS011;67381;47.672;9.380;2023-07-13T06:12:39;9.32;;;3.67;;
78131;SDS011;67381;47.672;9.380;2023-07-13T06:15:07;8.02;;;2.72;;
78131;SDS011;67381;47.672;9.380;2023-07-13T06:17:34;5.50;;;3.05;;
78131;SDS011;67381;47.672;9.380;2023-07-13T06:20:02;6.22;;;3.10;;
78131;SDS011;67381;47.672;9.380;2023-07-13T06:22:29;6.80;;;3.22;;
78131;SDS011;67381;47.672;9.380;2023-07-13T06:24:57;7.45;;;3.38;;
78131;SDS011;67381;47.672;9.380;2023-07-13T06:27:24;8.05;;;3.45;;
78131;SDS011;67381;47.672;9.380;2023-07-13T06:29:52;6.57;;;3.65;;
78131;SDS011;67381;47.672;9.380;2023-07-13T06:32:19;8.48;;;4.25;;
78131;SDS011;67381;47.672;9.380;2023-07-13T06:34:47;8.10;;;4.13;;
78131;SDS011;67381;47.672;9.380;2023-07-13T06:37:14;6.80;;;3.83;;
78131;SDS011;67381;47.672;9.380;2023-07-13T06:39:41;8.30;;;3.85;;
78131;SDS011;67381;47.672;9.380;2023-07-13T06:42:09;8.25;;;4.18;;
78131;SDS011;67381;47.672;9.380;2023-07-13T06:44:37;9.10;;;4.00;;
78131;SDS011;67381;47.672;9.380;2023-07-13T06:47:04;10.27;;;5.00;;
78131;SDS011;67381;47.672;9.380;2023-07-13T06:49:32;9.05;;;4.32;;
78131;SDS011;67381;47.672;9.380;2023-07-13T06:51:59;8.02;;;4.65;;
78131;SDS011;67381;47.672;9.380;2023-07-13T06:54:27;8.88;;;5.03;;
78131;SDS011;67381;47.672;9.380;2023-07-13T06:56:54;7.25;;;4.35;;
78131;SDS011;67381;47.672;9.380;2023-07-13T06:59:22;9.90;;;4.97;;
78131;SDS011;67381;47.672;9.380;2023-07-13T07:01:49;8.55;;;4.97;;
78131;SDS011;67381;47.672;9.380;2023-07-13T07:04:17;10.85;;;5.57;;
78131;SDS011;67381;47.672;9.380;2023-07-13T07:06:44;12.95;;;6.72;;
78131;SDS011;67381;47.672;9.380;2023-07-13T07:09:12;14.27;;;6.60;;
78131;SDS011;67381;47.672;9.380;2023-07-13T07:11:40;12.00;;;5.55;;
78131;SDS011;67381;47.672;9.380;2023-07-13T07:14:13;15.90;;;5.82;;
78131;SDS011;67381;47.672;9.380;2023-07-13T07:16:40;10.35;;;5.80;;
78131;SDS011;67381;47.672;9.380;2023-07-13T07:19:08;8.73;;;4.53;;
78131;SDS011;67381;47.672;9.380;2023-07-13T07:21:35;14.07;;;3.97;;
78131;SDS011;67381;47.672;9.380;2023-07-13T07:24:02;7.03;;;2.92;;
78131;SDS011;67381;47.672;9.380;2023-07-13T07:26:31;7.40;;;3.05;;
78131;SDS011;67381;47.672;9.380;2023-07-13T07:29:10;6.82;;;2.20;;
78131;SDS011;67381;47.672;9.380;2023-07-13T07:31:40;4.13;;;1.98;;
78131;SDS011;67381;47.672;9.380;2023-07-13T07:34:11;10.23;;;2.92;;
78131;SDS011;67381;47.672;9.380;2023-07-13T07:36:38;5.88;;;2.70;;
78131;SDS011;67381;47.672;9.380;2023-07-13T07:39:08;6.10;;;2.55;;
78131;SDS011;67381;47.672;9.380;2023-07-13T07:41:36;7.88;;;2.58;;
78131;SDS011;67381;47.672;9.380;2023-07-13T07:44:06;6.60;;;2.60;;
78131;SDS011;67381;47.672;9.380;2023-07-13T07:46:34;8.60;;;2.25;;
78131;SDS011;67381;47.672;9.380;2023-07-13T07:49:02;9.35;;;3.08;;
78131;SDS011;67381;47.672;9.380;2023-07-13T07:51:29;8.18;;;3.00;;
78131;SDS011;67381;47.672;9.380;2023-07-13T07:53:56;6.60;;;3.13;;
78131;SDS011;67381;47.672;9.380;2023-07-13T07:56:24;5.80;;;3.03;;
78131;SDS011;67381;47.672;9.380;2023-07-13T07:58:54;9.32;;;2.70;;
78131;SDS011;67381;47.672;9.380;2023-07-13T08:01:24;9.25;;;3.75;;
78131;SDS011;67381;47.672;9.380;2023-07-13T08:03:54;8.48;;;2.65;;
78131;SDS011;67381;47.672;9.380;2023-07-13T08:06:25;7.65;;;2.45;;
78131;SDS011;67381;47.672;9.380;2023-07-13T08:08:55;4.82;;;1.80;;
78131;SDS011;67381;47.672;9.380;2023-07-13T08:11:22;6.85;;;2.45;;
78131;SDS011;67381;47.672;9.380;2023-07-13T08:13:53;5.13;;;2.00;;
78131;SDS011;67381;47.672;9.380;2023-07-13T08:16:21;3.72;;;2.25;;
78131;SDS011;67381;47.672;9.380;2023-07-13T08:18:49;6.97;;;2.10;;
78131;SDS011;67381;47.672;9.380;2023-07-13T08:21:17;5.20;;;2.03;;
78131;SDS011;67381;47.672;9.380;2023-07-13T08:23:46;5.45;;;2.25;;
78131;SDS011;67381;47.672;9.380;2023-07-13T08:26:14;4.80;;;1.95;;
78131;SDS011;67381;47.672;9.380;2023-07-13T08:28:41;4.18;;;1.75;;
78131;SDS011;67381;47.672;9.380;2023-07-13T08:31:09;4.88;;;1.63;;
78131;SDS011;67381;47.672;9.380;2023-07-13T08:33:37;5.25;;;2.03;;
78131;SDS011;67381;47.672;9.380;2023-07-13T08:36:05;7.47;;;1.98;;
78131;SDS011;67381;47.672;9.380;2023-07-13T08:38:33;7.45;;;2.25;;
78131;SDS011;67381;47.672;9.380;2023-07-13T08:41:02;4.20;;;1.77;;
78131;SDS011;67381;47.672;9.380;2023-07-13T08:43:35;4.43;;;1.70;;
78131;SDS011;67381;47.672;9.380;2023-07-13T08:48:35;4.05;;;1.65;;
78131;SDS011;67381;47.672;9.380;2023-07-13T08:51:11;9.32;;;1.85;;
78131;SDS011;67381;47.672;9.380;2023-07-13T08:53:47;3.75;;;1.45;;
78131;SDS011;67381;47.672;9.380;2023-07-13T08:56:17;3.08;;;1.20;;
78131;SDS011;67381;47.672;9.380;2023-07-13T08:58:49;6.30;;;1.38;;
78131;SDS011;67381;47.672;9.380;2023-07-13T09:04:11;4.88;;;1.20;;
78131;SDS011;67381;47.672;9.380;2023-07-13T09:06:49;3.75;;;1.38;;
78131;SDS011;67381;47.672;9.380;2023-07-13T09:09:34;3.70;;;1.25;;
78131;SDS011;67381;47.672;9.380;2023-07-13T09:12:26;4.30;;;1.55;;
78131;SDS011;67381;47.672;9.380;2023-07-13T09:14:57;3.15;;;1.30;;
78131;SDS011;67381;47.672;9.380;2023-07-13T09:17:27;6.43;;;1.70;;
78131;SDS011;67381;47.672;9.380;2023-07-13T09:20:01;3.60;;;1.55;;
78131;SDS011;67381;47.672;9.380;2023-07-13T09:22:32;5.55;;;1.42;;
78131;SDS011;67381;47.672;9.380;2023-07-13T09:27:53;5.03;;;1.27;;
78131;SDS011;67381;47.672;9.380;2023-07-13T09:30:24;2.95;;;1.10;;
78131;SDS011;67381;47.672;9.380;2023-07-13T09:32:57;5.85;;;1.42;;
78131;SDS011;67381;47.672;9.380;2023-07-13T09:35:26;4.75;;;1.38;;
78131;SDS011;67381;47.672;9.380;2023-07-13T09:37:58;2.70;;;1.40;;
78131;SDS011;67381;47.672;9.380;2023-07-13T09:40:30;3.90;;;1.33;;
78131;SDS011;67381;47.672;9.380;2023-07-13T09:43:14;3.00;;;1.17;;
78131;SDS011;67381;47.672;9.380;2023-07-13T09:45:43;6.55;;;1.77;;
78131;SDS011;67381;47.672;9.380;2023-07-13T09:48:13;4.82;;;1.50;;
78131;SDS011;67381;47.672;9.380;2023-07-13T09:50:42;5.35;;;1.45;;
78131;SDS011;67381;47.672;9.380;2023-07-13T09:53:13;6.53;;;1.65;;
78131;SDS011;67381;47.672;9.380;2023-07-13T09:55:42;5.90;;;1.70;;
78131;SDS011;67381;47.672;9.380;2023-07-13T09:58:13;5.78;;;1.30;;
78131;SDS011;67381;47.672;9.380;2023-07-13T10:00:42;4.07;;;1.50;;
78131;SDS011;67381;47.672;9.380;2023-07-13T10:03:22;6.95;;;2.00;;
78131;SDS011;67381;47.672;9.380;2023-07-13T10:05:50;5.93;;;1.27;;
78131;SDS011;67381;47.672;9.380;2023-07-13T10:08:25;2.60;;;1.40;;
78131;SDS011;67381;47.672;9.380;2023-07-13T10:11:01;6.40;;;1.55;;
78131;SDS011;67381;47.672;9.380;2023-07-13T10:13:53;5.90;;;1.52;;
78131;SDS011;67381;47.672;9.380;2023-07-13T10:16:23;7.30;;;1.60;;
78131;SDS011;67381;47.672;9.380;2023-07-13T10:18:53;4.47;;;1.60;;
78131;SDS011;67381;47.672;9.380;2023-07-13T10:21:23;6.90;;;1.30;;
78131;SDS011;67381;47.672;9.380;2023-07-13T10:24:09;4.50;;;1.40;;
78131;SDS011;67381;47.672;9.380;2023-07-13T10:26:49;5.95;;;1.38;;
78131;SDS011;67381;47.672;9.380;2023-07-13T10:29:20;4.10;;;1.45;;
78131;SDS011;67381;47.672;9.380;2023-07-13T10:31:49;3.90;;;1.40;;
78131;SDS011;67381;47.672;9.380;2023-07-13T10:34:18;3.45;;;1.30;;
78131;SDS011;67381;47.672;9.380;2023-07-13T10:36:46;4.53;;;1.52;;
78131;SDS011;67381;47.672;9.380;2023-07-13T10:39:36;3.53;;;1.25;;
78131;SDS011;67381;47.672;9.380;2023-07-13T10:42:04;5.35;;;1.60;;
78131;SDS011;67381;47.672;9.380;2023-07-13T10:44:33;4.53;;;1.70;;
78131;SDS011;67381;47.672;9.380;2023-07-13T10:47:03;4.32;;;1.33;;
78131;SDS011;67381;47.672;9.380;2023-07-13T10:49:41;4.93;;;1.70;;
78131;SDS011;67381;47.672;9.380;2023-07-13T10:58:01;8.07;;;1.45;;
78131;SDS011;67381;47.672;9.380;2023-07-13T11:00:31;6.30;;;1.55;;
78131;SDS011;67381;47.672;9.380;2023-07-13T11:03:00;9.45;;;2.03;;
78131;SDS011;67381;47.672;9.380;2023-07-13T11:05:30;4.40;;;1.48;;
78131;SDS011;67381;47.672;9.380;2023-07-13T11:08:03;11.15;;;4.05;;
78131;SDS011;67381;47.672;9.380;2023-07-13T11:10:48;5.72;;;1.60;;
78131;SDS011;67381;47.672;9.380;2023-07-13T11:16:12;8.65;;;1.48;;
78131;SDS011;67381;47.672;9.380;2023-07-13T11:18:46;4.25;;;1.77;;
78131;SDS011;67381;47.672;9.380;2023-07-13T11:21:19;4.05;;;1.77;;
78131;SDS011;67381;47.672;9.380;2023-07-13T11:26:39;3.85;;;1.30;;
78131;SDS011;67381;47.672;9.380;2023-07-13T11:29:08;3.85;;;1.40;;
78131;SDS011;67381;47.672;9.380;2023-07-13T11:31:39;4.30;;;1.45;;
78131;SDS011;67381;47.672;9.380;2023-07-13T11:34:08;4.47;;;1.50;;
78131;SDS011;67381;47.672;9.380;2023-07-13T11:36:42;5.43;;;1.58;;
78131;SDS011;67381;47.672;9.380;2023-07-13T11:39:12;3.67;;;1.50;;
78131;SDS011;67381;47.672;9.380;2023-07-13T11:44:19;7.85;;;1.75;;
78131;SDS011;67381;47.672;9.380;2023-07-13T11:46:52;5.78;;;1.60;;
78131;SDS011;67381;47.672;9.380;2023-07-13T11:49:24;8.27;;;2.25;;
78131;SDS011;67381;47.672;9.380;2023-07-13T11:51:53;8.15;;;1.65;;
78131;SDS011;67381;47.672;9.380;2023-07-13T11:54:41;3.97;;;1.67;;
78131;SDS011;67381;47.672;9.380;2023-07-13T11:57:30;4.78;;;1.85;;
78131;SDS011;67381;47.672;9.380;2023-07-13T12:00:02;5.18;;;1.88;;
78131;SDS011;67381;47.672;9.380;2023-07-13T12:02:34;5.75;;;1.45;;
78131;SDS011;67381;47.672;9.380;2023-07-13T12:05:04;4.72;;;1.88;;
78131;SDS011;67381;47.672;9.380;2023-07-13T12:07:32;6.80;;;1.83;;
78131;SDS011;67381;47.672;9.380;2023-07-13T12:10:13;8.55;;;2.22;;
78131;SDS011;67381;47.672;9.380;2023-07-13T12:12:48;8.57;;;1.67;;
78131;SDS011;67381;47.672;9.380;2023-07-13T12:15:39;4.15;;;1.50;;
78131;SDS011;67381;47.672;9.380;2023-07-13T12:18:15;3.72;;;1.38;;
78131;SDS011;67381;47.672;9.380;2023-07-13T12:20:46;3.67;;;1.67;;
78131;SDS011;67381;47.672;9.380;2023-07-13T12:25:52;3.17;;;1.70;;
78131;SDS011;67381;47.672;9.380;2023-07-13T12:28:28;3.20;;;1.52;;
78131;SDS011;67381;47.672;9.380;2023-07-13T12:31:01;3.70;;;1.52;;
78131;SDS011;67381;47.672;9.380;2023-07-13T12:33:29;5.38;;;1.75;;
78131;SDS011;67381;47.672;9.380;2023-07-13T12:36:00;4.10;;;1.42;;
78131;SDS011;67381;47.672;9.380;2023-07-13T12:38:30;3.30;;;1.40;;
78131;SDS011;67381;47.672;9.380;2023-07-13T12:40:58;4.05;;;1.75;;
78131;SDS011;67381;47.672;9.380;2023-07-13T12:43:25;2.75;;;1.50;;
78131;SDS011;67381;47.672;9.380;2023-07-13T12:48:47;2.72;;;1.27;;
78131;SDS011;67381;47.672;9.380;2023-07-13T12:51:21;5.40;;;1.40;;
78131;SDS011;67381;47.672;9.380;2023-07-13T12:53:50;4.03;;;1.90;;
78131;SDS011;67381;47.672;9.380;2023-07-13T12:56:24;4.00;;;1.50;;
78131;SDS011;67381;47.672;9.380;2023-07-13T12:58:57;3.50;;;1.48;;
78131;SDS011;67381;47.672;9.380;2023-07-13T13:01:26;4.60;;;1.38;;
78131;SDS011;67381;47.672;9.380;2023-07-13T13:03:55;4.93;;;1.33;;
78131;SDS011;67381;47.672;9.380;2023-07-13T13:06:24;3.47;;;1.40;;
78131;SDS011;67381;47.672;9.380;2023-07-13T13:08:54;3.20;;;1.63;;
78131;SDS011;67381;47.672;9.380;2023-07-13T13:11:23;3.00;;;1.27;;
78131;SDS011;67381;47.672;9.380;2023-07-13T13:13:51;4.82;;;1.83;;
78131;SDS011;67381;47.672;9.380;2023-07-13T13:16:32;3.63;;;1.35;;
78131;SDS011;67381;47.672;9.380;2023-07-13T13:19:15;3.50;;;1.60;;
78131;SDS011;67381;47.672;9.380;2023-07-13T13:21:45;5.40;;;1.40;;
78131;SDS011;67381;47.672;9.380;2023-07-13T13:24:13;3.33;;;1.73;;
78131;SDS011;67381;47.672;9.380;2023-07-13T13:26:42;5.47;;;1.58;;
78131;SDS011;67381;47.672;9.380;2023-07-13T13:29:17;3.53;;;1.60;;
78131;SDS011;67381;47.672;9.380;2023-07-13T13:31:46;3.78;;;1.48;;
78131;SDS011;67381;47.672;9.380;2023-07-13T13:34:15;3.50;;;1.48;;
78131;SDS011;67381;47.672;9.380;2023-07-13T13:36:43;3.38;;;1.80;;
78131;SDS011;67381;47.672;9.380;2023-07-13T13:39:22;3.45;;;1.52;;
78131;SDS011;67381;47.672;9.380;2023-07-13T13:41:51;3.17;;;1.63;;
78131;SDS011;67381;47.672;9.380;2023-07-13T13:44:20;4.20;;;1.98;;
78131;SDS011;67381;47.672;9.380;2023-07-13T13:46:49;4.25;;;1.60;;
78131;SDS011;67381;47.672;9.380;2023-07-13T13:49:21;4.45;;;1.52;;
78131;SDS011;67381;47.672;9.380;2023-07-13T13:51:50;3.47;;;1.20;;
78131;SDS011;67381;47.672;9.380;2023-07-13T13:54:18;3.92;;;1.58;;
78131;SDS011;67381;47.672;9.380;2023-07-13T13:56:48;4.30;;;1.50;;
78131;SDS011;67381;47.672;9.380;2023-07-13T13:59:16;4.63;;;1.67;;
78131;SDS011;67381;47.672;9.380;2023-07-13T14:01:45;5.72;;;1.98;;
78131;SDS011;67381;47.672;9.380;2023-07-13T14:04:16;4.53;;;1.40;;
78131;SDS011;67381;47.672;9.380;2023-07-13T14:06:46;5.03;;;2.13;;
78131;SDS011;67381;47.672;9.380;2023-07-13T14:09:15;4.43;;;1.55;;
78131;SDS011;67381;47.672;9.380;2023-07-13T14:11:45;4.45;;;1.70;;
78131;SDS011;67381;47.672;9.380;2023-07-13T14:14:16;3.38;;;1.40;;
78131;SDS011;67381;47.672;9.380;2023-07-13T14:16:45;5.05;;;1.60;;
78131;SDS011;67381;47.672;9.380;2023-07-13T14:19:20;3.13;;;1.50;;
78131;SDS011;67381;47.672;9.380;2023-07-13T14:21:47;3.45;;;1.75;;
78131;SDS011;67381;47.672;9.380;2023-07-13T14:24:16;3.92;;;1.83;;
78131;SDS011;67381;47.672;9.380;2023-07-13T14:26:46;3.90;;;1.52;;
78131;SDS011;67381;47.672;9.380;2023-07-13T14:29:15;6.93;;;1.65;;
78131;SDS011;67381;47.672;9.380;2023-07-13T14:31:45;2.90;;;1.60;;
78131;SDS011;67381;47.672;9.380;2023-07-13T14:34:13;4.82;;;1.63;;
78131;SDS011;67381;47.672;9.380;2023-07-13T14:36:44;3.58;;;1.35;;
78131;SDS011;67381;47.672;9.380;2023-07-13T14:39:15;4.80;;;1.67;;
78131;SDS011;67381;47.672;9.380;2023-07-13T14:41:45;4.13;;;1.90;;
78131;SDS011;67381;47.672;9.380;2023-07-13T14:44:17;4.07;;;1.83;;
78131;SDS011;67381;47.672;9.380;2023-07-13T14:46:47;4.18;;;1.58;;
78131;SDS011;67381;47.672;9.380;2023-07-13T14:49:21;3.60;;;1.48;;
78131;SDS011;67381;47.672;9.380;2023-07-13T14:51:50;4.18;;;1.50;;
78131;SDS011;67381;47.672;9.380;2023-07-13T14:54:18;5.72;;;1.65;;
78131;SDS011;67381;47.672;9.380;2023-07-13T14:56:45;3.55;;;1.48;;
78131;SDS011;67381;47.672;9.380;2023-07-13T14:59:13;3.30;;;1.60;;
78131;SDS011;67381;47.672;9.380;2023-07-13T15:01:41;4.00;;;1.75;;
78131;SDS011;67381;47.672;9.380;2023-07-13T15:04:08;3.45;;;1.52;;
78131;SDS011;67381;47.672;9.380;2023-07-13T15:09:30;3.65;;;1.45;;
78131;SDS011;67381;47.672;9.380;2023-07-13T15:11:58;3.25;;;1.67;;
78131;SDS011;67381;47.672;9.380;2023-07-13T15:14:25;3.45;;;1.60;;
78131;SDS011;67381;47.672;9.380;2023-07-13T15:16:54;4.00;;;1.60;;
78131;SDS011;67381;47.672;9.380;2023-07-13T15:19:22;6.10;;;1.70;;
78131;SDS011;67381;47.672;9.380;2023-07-13T15:21:50;7.38;;;2.10;;
78131;SDS011;67381;47.672;9.380;2023-07-13T15:24:19;5.80;;;2.03;;
78131;SDS011;67381;47.672;9.380;2023-07-13T15:26:48;5.28;;;1.50;;
78131;SDS011;67381;47.672;9.380;2023-07-13T15:29:16;3.78;;;1.50;;
78131;SDS011;67381;47.672;9.380;2023-07-13T15:31:44;7.68;;;1.63;;
78131;SDS011;67381;47.672;9.380;2023-07-13T15:34:13;3.30;;;1.52;;
78131;SDS011;67381;47.672;9.380;2023-07-13T15:36:44;4.25;;;1.55;;